Time;durP1;ratioP1;P1;durP2;ratioP2;P2;SDS_P1;SDS_P2;PMS_P1;PMS_P2;Temp;Humidity;BMP_temperature;BMP_pressure;BME280_temperature;BME280_humidity;BME280_pressure;Samples;Min_cycle;Max_cycle;Signal;HPM_P1;HPM_P2
2022/10/18 00:01:26;;;;;;;7.50;3.53;;;;;;;;;;5083616;28;20522;-70
2022/10/18 00:03:57;;;;;;;17.88;10.20;;;;;;;;;;5060063;28;20059;-69
2022/10/18 00:06:28;;;;;;;15.30;5.10;;;;;;;;;;5112282;28;20382;-70
2022/10/18 00:08:59;;;;;;;15.02;9.50;;;;;;;;;;5112302;28;20044;-71
2022/10/18 00:11:28;;;;;;;7.07;4.28;;;;;;;;;;5028118;28;20071;-71
2022/10/18 00:13:58;;;;;;;8.90;4.15;;;;;;;;;;5112365;28;20039;-69
2022/10/18 00:16:28;;;;;;;8.82;4.07;;;;;;;;;;5076352;28;20056;-70
2022/10/18 00:18:58;;;;;;;8.38;3.90;;;;;;;;;;5112201;28;20502;-70
2022/10/18 00:21:28;;;;;;;8.43;4.15;;;;;;;;;;5048922;28;20052;-70
2022/10/18 00:23:59;;;;;;;9.00;4.28;;;;;;;;;;5034293;28;20049;-70
2022/10/18 00:26:30;;;;;;;8.68;4.07;;;;;;;;;;5052905;28;20228;-69
2022/10/18 00:29:03;;;;;;;9.07;4.07;;;;;;;;;;5036087;28;20059;-70
2022/10/18 00:31:36;;;;;;;9.68;4.28;;;;;;;;;;5052753;28;20040;-71
2022/10/18 00:34:12;;;;;;;11.50;3.97;;;;;;;;;;5012899;28;20049;-69
2022/10/18 00:36:44;;;;;;;13.77;4.68;;;;;;;;;;5012828;28;20050;-70
2022/10/18 00:39:18;;;;;;;10.15;3.67;;;;;;;;;;5012977;28;20502;-69
2022/10/18 00:41:50;;;;;;;8.30;3.70;;;;;;;;;;4980079;28;20046;-69
2022/10/18 00:44:27;;;;;;;8.23;3.67;;;;;;;;;;4964386;28;20054;-69
2022/10/18 00:47:08;;;;;;;9.15;3.80;;;;;;;;;;5012393;28;20058;-69
2022/10/18 00:49:44;;;;;;;10.80;4.15;;;;;;;;;;5012718;28;20057;-69
2022/10/18 00:52:41;;;;;;;9.65;5.47;;;;;;;;;;4996681;28;20787;-69
2022/10/18 00:55:12;;;;;;;9.23;4.25;;;;;;;;;;5012633;28;20516;-69
2022/10/18 00:57:44;;;;;;;11.68;3.97;;;;;;;;;;5013030;28;20061;-70
2022/10/18 01:00:14;;;;;;;6.38;3.88;;;;;;;;;;5050844;28;20041;-69
2022/10/18 01:02:46;;;;;;;8.25;4.00;;;;;;;;;;5012248;28;20069;-69
2022/10/18 01:05:19;;;;;;;9.13;3.97;;;;;;;;;;4979682;28;20054;-69
2022/10/18 01:07:55;;;;;;;;;;;;;;;;;;5012690;28;20049;-69
2022/10/18 01:10:34;;;;;;;11.30;3.63;;;;;;;;;;5012418;28;20365;-69
2022/10/18 01:13:10;;;;;;;9.25;4.15;;;;;;;;;;5012591;28;20054;-69
2022/10/18 01:15:50;;;;;;;9.95;3.85;;;;;;;;;;4979561;28;20046;-69
2022/10/18 01:18:43;;;;;;;6.53;3.75;;;;;;;;;;5012912;28;20062;-70
2022/10/18 01:21:34;;;;;;;7.72;3.53;;;;;;;;;;5032045;28;20409;-69
2022/10/18 01:24:35;;;;;;;11.18;5.40;;;;;;;;;;5043363;28;20056;-69
2022/10/18 01:27:33;;;;;;;8.27;4.60;;;;;;;;;;5039131;28;20100;-69
2022/10/18 01:30:20;;;;;;;7.18;4.05;;;;;;;;;;5054922;28;20111;-69
2022/10/18 01:32:59;;;;;;;11.23;4.15;;;;;;;;;;5071527;28;20068;-69
2022/10/18 01:35:37;;;;;;;13.15;4.43;;;;;;;;;;5038069;28;20048;-69
2022/10/18 01:38:13;;;;;;;8.07;4.38;;;;;;;;;;5038922;28;20044;-69
2022/10/18 01:40:45;;;;;;;10.75;4.35;;;;;;;;;;5047659;28;20051;-70
2022/10/18 01:43:17;;;;;;;9.55;3.88;;;;;;;;;;5114386;28;20051;-70
2022/10/18 01:45:48;;;;;;;10.25;4.50;;;;;;;;;;5071354;28;20045;-70
2022/10/18 01:48:20;;;;;;;10.32;4.10;;;;;;;;;;5054666;28;20060;-69
2022/10/18 01:50:53;;;;;;;9.85;4.43;;;;;;;;;;5021527;28;20049;-70
2022/10/18 01:53:33;;;;;;;11.55;4.25;;;;;;;;;;5071517;28;20043;-68
2022/10/18 01:56:22;;;;;;;9.57;4.30;;;;;;;;;;5021195;28;20063;-70
2022/10/18 01:59:01;;;;;;;11.77;4.45;;;;;;;;;;5071211;28;20059;-70
2022/10/18 02:01:45;;;;;;;10.95;4.32;;;;;;;;;;5071412;28;20049;-70
2022/10/18 02:04:23;;;;;;;7.40;3.95;;;;;;;;;;5037783;28;20056;-70
2022/10/18 02:07:02;;;;;;;9.20;4.55;;;;;;;;;;5021191;28;20548;-70
2022/10/18 02:09:45;;;;;;;10.98;4.40;;;;;;;;;;5020917;28;20045;-70
2022/10/18 02:12:17;;;;;;;9.52;4.05;;;;;;;;;;5068076;28;20059;-70
2022/10/18 02:14:49;;;;;;;11.57;4.32;;;;;;;;;;5070932;28;20083;-70
2022/10/18 02:17:21;;;;;;;13.77;4.13;;;;;;;;;;5098973;28;20058;-71
2022/10/18 02:19:54;;;;;;;14.20;4.72;;;;;;;;;;5113862;28;20044;-70
2022/10/18 02:22:27;;;;;;;11.18;4.40;;;;;;;;;;5078542;28;20059;-70
2022/10/18 02:25:02;;;;;;;11.32;4.53;;;;;;;;;;5113424;28;20040;-70
2022/10/18 02:27:32;;;;;;;7.95;4.65;;;;;;;;;;5094565;28;20056;-68
2022/10/18 02:30:03;;;;;;;10.00;4.68;;;;;;;;;;5114152;28;20054;-70
2022/10/18 02:32:49;;;;;;;9.88;3.90;;;;;;;;;;5061191;28;20396;-71
2022/10/18 02:35:22;;;;;;;9.85;4.68;;;;;;;;;;5113164;28;20051;-70
2022/10/18 02:37:54;;;;;;;8.57;5.20;;;;;;;;;;5062051;28;20055;-70
2022/10/18 02:40:25;;;;;;;11.70;5.10;;;;;;;;;;5113458;28;20036;-69
2022/10/18 02:42:57;;;;;;;11.77;4.18;;;;;;;;;;5077558;28;20055;-70
2022/10/18 02:45:28;;;;;;;12.30;4.25;;;;;;;;;;5094012;28;20569;-70
2022/10/18 02:47:58;;;;;;;10.77;4.72;;;;;;;;;;5112710;28;20043;-70
2022/10/18 02:50:28;;;;;;;8.75;4.47;;;;;;;;;;5113251;28;20479;-70
2022/10/18 02:52:58;;;;;;;7.45;5.20;;;;;;;;;;5093997;28;20052;-70
2022/10/18 02:55:29;;;;;;;10.55;4.97;;;;;;;;;;5077253;28;20537;-69
2022/10/18 02:57:58;;;;;;;12.18;4.03;;;;;;;;;;5113122;28;20434;-70
2022/10/18 03:00:28;;;;;;;12.27;4.70;;;;;;;;;;5060541;28;20067;-69
2022/10/18 03:02:58;;;;;;;11.98;4.90;;;;;;;;;;5061896;28;20066;-69
2022/10/18 03:05:28;;;;;;;9.73;4.78;;;;;;;;;;5112991;28;20583;-69
2022/10/18 03:07:57;;;;;;;9.77;3.85;;;;;;;;;;5112926;28;20039;-70
2022/10/18 03:10:28;;;;;;;12.02;5.07;;;;;;;;;;5077271;28;20051;-69
2022/10/18 03:12:58;;;;;;;11.20;4.18;;;;;;;;;;5060135;28;20086;-70
2022/10/18 03:15:29;;;;;;;8.48;4.32;;;;;;;;;;5112877;28;20051;-70
2022/10/18 03:17:58;;;;;;;9.10;3.75;;;;;;;;;;5077018;28;20731;-69
2022/10/18 03:20:28;;;;;;;9.00;4.60;;;;;;;;;;5112687;28;20044;-70
2022/10/18 03:22:58;;;;;;;11.63;4.45;;;;;;;;;;5077090;28;20059;-70
2022/10/18 03:25:28;;;;;;;12.80;4.90;;;;;;;;;;5112550;28;20047;-69
2022/10/18 03:27:58;;;;;;;11.68;4.35;;;;;;;;;;5112739;28;20043;-69
2022/10/18 03:30:28;;;;;;;10.57;5.15;;;;;;;;;;5112748;28;20059;-69
2022/10/18 03:32:58;;;;;;;9.85;4.95;;;;;;;;;;5112544;28;20063;-69
2022/10/18 03:35:27;;;;;;;12.88;5.20;;;;;;;;;;5112447;28;20471;-71
2022/10/18 03:37:58;;;;;;;10.35;4.35;;;;;;;;;;5043041;28;20055;-69
2022/10/18 03:40:27;;;;;;;9.13;4.25;;;;;;;;;;5052779;28;20510;-70
2022/10/18 03:42:59;;;;;;;13.00;4.55;;;;;;;;;;5069580;28;20048;-69
2022/10/18 03:45:29;;;;;;;13.43;4.93;;;;;;;;;;5069729;28;20558;-69
2022/10/18 03:47:59;;;;;;;12.27;4.82;;;;;;;;;;5052938;28;20053;-69
2022/10/18 03:50:29;;;;;;;12.77;4.50;;;;;;;;;;5069516;28;20072;-69
2022/10/18 03:52:59;;;;;;;10.10;4.43;;;;;;;;;;5069653;28;20067;-69
2022/10/18 03:55:29;;;;;;;7.55;4.68;;;;;;;;;;5069356;28;20060;-69
2022/10/18 03:57:59;;;;;;;7.35;4.50;;;;;;;;;;5071617;28;20488;-69
2022/10/18 04:00:29;;;;;;;13.68;4.55;;;;;;;;;;5073325;28;20053;-69
2022/10/18 04:02:59;;;;;;;7.30;4.55;;;;;;;;;;5040018;28;20091;-69
2022/10/18 04:05:30;;;;;;;8.35;4.50;;;;;;;;;;5073192;28;20053;-69
2022/10/18 04:08:00;;;;;;;8.38;4.13;;;;;;;;;;5040576;28;20057;-69
2022/10/18 04:10:30;;;;;;;9.00;3.47;;;;;;;;;;5005171;28;20519;-69
2022/10/18 04:13:00;;;;;;;8.45;4.20;;;;;;;;;;5073164;28;20060;-69
2022/10/18 04:15:30;;;;;;;8.90;4.05;;;;;;;;;;5039838;28;20064;-69
2022/10/18 04:18:00;;;;;;;8.95;3.63;;;;;;;;;;5073156;28;20491;-68
2022/10/18 04:20:31;;;;;;;7.07;4.30;;;;;;;;;;5073058;28;20048;-69
2022/10/18 04:23:02;;;;;;;9.82;4.25;;;;;;;;;;5039938;28;20120;-69
2022/10/18 04:25:32;;;;;;;8.82;5.65;;;;;;;;;;5072889;28;20048;-68
2022/10/18 04:28:03;;;;;;;8.50;4.50;;;;;;;;;;5073031;28;20496;-68
2022/10/18 04:30:33;;;;;;;8.30;4.25;;;;;;;;;;5072808;28;20064;-68
2022/10/18 04:33:03;;;;;;;11.07;4.75;;;;;;;;;;5072731;28;20048;-68
2022/10/18 04:35:33;;;;;;;17.48;5.03;;;;;;;;;;5072725;28;20064;-68
2022/10/18 04:38:03;;;;;;;11.55;5.63;;;;;;;;;;5072820;28;20041;-68
2022/10/18 04:40:33;;;;;;;9.80;4.65;;;;;;;;;;5072529;28;20048;-68
2022/10/18 04:43:02;;;;;;;8.00;3.90;;;;;;;;;;5072753;28;20044;-68
2022/10/18 04:45:33;;;;;;;8.32;4.55;;;;;;;;;;5039389;28;20057;-68
2022/10/18 04:48:03;;;;;;;11.50;4.68;;;;;;;;;;5058028;28;20475;-67
2022/10/18 04:50:32;;;;;;;11.82;4.40;;;;;;;;;;5115293;28;20042;-68
2022/10/18 04:53:14;;;;;;;13.60;4.90;;;;;;;;;;5022185;28;20077;-69
2022/10/18 04:55:49;;;;;;;10.25;4.80;;;;;;;;;;5035721;28;20531;-72
2022/10/18 04:58:19;;;;;;;9.35;4.38;;;;;;;;;;5052411;28;20061;-70
2022/10/18 05:00:49;;;;;;;7.80;4.20;;;;;;;;;;5019123;28;20104;-72
2022/10/18 05:03:19;;;;;;;9.15;4.85;;;;;;;;;;5019050;28;20045;-72
2022/10/18 05:05:49;;;;;;;8.07;4.38;;;;;;;;;;5052211;28;20056;-73
2022/10/18 05:08:35;;;;;;;13.27;5.80;;;;;;;;;;5010287;28;20076;-73
2022/10/18 05:11:05;;;;;;;9.07;4.55;;;;;;;;;;5051969;28;20049;-72
2022/10/18 05:13:37;;;;;;;7.28;4.10;;;;;;;;;;5052032;28;20412;-71
2022/10/18 05:16:07;;;;;;;10.57;4.65;;;;;;;;;;5052138;28;20170;-72
2022/10/18 05:18:37;;;;;;;12.07;5.05;;;;;;;;;;5052066;28;20056;-72
2022/10/18 05:21:08;;;;;;;11.73;4.93;;;;;;;;;;5052042;28;20059;-70
2022/10/18 05:23:38;;;;;;;9.70;4.22;;;;;;;;;;4992619;28;20442;-70
2022/10/18 05:26:08;;;;;;;11.50;4.78;;;;;;;;;;4992454;28;20058;-70
2022/10/18 05:28:39;;;;;;;11.15;4.93;;;;;;;;;;4943912;28;20054;-71
2022/10/18 05:31:10;;;;;;;11.45;5.07;;;;;;;;;;5029854;28;20061;-72
2022/10/18 05:33:40;;;;;;;9.65;4.57;;;;;;;;;;5034862;28;20401;-74
2022/10/18 05:36:10;;;;;;;10.35;4.80;;;;;;;;;;5018275;28;20057;-75
2022/10/18 05:38:41;;;;;;;15.52;5.47;;;;;;;;;;5051615;28;20148;-74
2022/10/18 05:41:12;;;;;;;9.15;4.97;;;;;;;;;;5051560;28;20064;-73
2022/10/18 05:43:43;;;;;;;12.25;4.78;;;;;;;;;;5051646;28;20049;-73
2022/10/18 05:46:13;;;;;;;11.15;5.07;;;;;;;;;;5051069;28;20051;-73
2022/10/18 05:48:48;;;;;;;13.35;4.95;;;;;;;;;;5051316;28;20190;-76
2022/10/18 05:51:18;;;;;;;11.98;5.00;;;;;;;;;;5034277;28;20060;-73
2022/10/18 05:53:49;;;;;;;10.50;5.05;;;;;;;;;;5018131;28;20507;-72
2022/10/18 05:56:19;;;;;;;9.23;4.88;;;;;;;;;;5018218;28;20060;-72
2022/10/18 05:58:52;;;;;;;17.83;5.80;;;;;;;;;;5051103;28;20079;-73
2022/10/18 06:01:22;;;;;;;11.23;4.88;;;;;;;;;;5037685;28;20063;-71
2022/10/18 06:03:52;;;;;;;8.82;4.25;;;;;;;;;;5071045;28;20052;-72
2022/10/18 06:06:22;;;;;;;9.77;4.70;;;;;;;;;;5070926;28;20048;-70
2022/10/18 06:08:52;;;;;;;14.85;5.28;;;;;;;;;;5034549;28;20056;-70
2022/10/18 06:11:22;;;;;;;9.30;5.07;;;;;;;;;;5050899;28;20064;-70
2022/10/18 06:13:52;;;;;;;13.95;5.70;;;;;;;;;;5018536;28;20064;-71
2022/10/18 06:16:23;;;;;;;8.32;5.07;;;;;;;;;;5050827;28;20530;-72
2022/10/18 06:18:59;;;;;;;13.25;5.50;;;;;;;;;;5020267;28;20057;-73
2022/10/18 06:21:30;;;;;;;11.00;5.05;;;;;;;;;;5016469;28;20566;-73
2022/10/18 06:24:00;;;;;;;12.43;5.57;;;;;;;;;;5061988;28;20086;-73
2022/10/18 06:26:29;;;;;;;14.07;5.10;;;;;;;;;;5037134;28;20071;-72
2022/10/18 06:28:59;;;;;;;12.38;5.57;;;;;;;;;;5037220;28;20061;-73
2022/10/18 06:31:30;;;;;;;9.30;5.07;;;;;;;;;;5037024;28;20052;-73
2022/10/18 06:34:01;;;;;;;8.70;5.20;;;;;;;;;;5070283;28;20071;-72
2022/10/18 06:36:31;;;;;;;11.20;5.18;;;;;;;;;;5070377;28;20049;-73
2022/10/18 06:39:01;;;;;;;10.52;5.20;;;;;;;;;;5021797;28;20057;-72
2022/10/18 06:41:31;;;;;;;12.15;5.07;;;;;;;;;;5070354;28;20056;-72
2022/10/18 06:44:22;;;;;;;8.50;4.82;;;;;;;;;;5070289;28;20484;-71
2022/10/18 06:46:53;;;;;;;9.75;4.95;;;;;;;;;;5097877;28;20055;-70
2022/10/18 06:49:23;;;;;;;11.82;5.78;;;;;;;;;;5113468;28;20482;-69
2022/10/18 06:51:54;;;;;;;10.15;5.57;;;;;;;;;;5077236;28;20063;-69
2022/10/18 06:54:23;;;;;;;8.35;5.25;;;;;;;;;;5113329;28;20047;-70
2022/10/18 06:56:56;;;;;;;10.95;4.60;;;;;;;;;;5077014;28;20419;-70
2022/10/18 06:59:27;;;;;;;10.70;4.60;;;;;;;;;;5027119;28;20407;-70
2022/10/18 07:01:59;;;;;;;9.90;5.15;;;;;;;;;;5049656;28;20049;-70
2022/10/18 07:04:29;;;;;;;13.65;5.45;;;;;;;;;;5000913;28;20057;-71
2022/10/18 07:06:59;;;;;;;11.25;5.25;;;;;;;;;;5049905;28;20053;-70
2022/10/18 07:09:29;;;;;;;11.88;4.93;;;;;;;;;;5049890;28;20092;-71
2022/10/18 07:11:59;;;;;;;9.93;5.82;;;;;;;;;;5049776;28;20060;-71
2022/10/18 07:14:29;;;;;;;7.63;4.90;;;;;;;;;;5049861;28;20059;-71
2022/10/18 07:16:59;;;;;;;10.20;5.40;;;;;;;;;;5050035;28;20068;-70
2022/10/18 07:19:29;;;;;;;10.02;5.88;;;;;;;;;;5049811;28;20481;-70
2022/10/18 07:22:01;;;;;;;10.25;5.10;;;;;;;;;;5049701;28;20053;-70
2022/10/18 07:24:31;;;;;;;9.75;5.20;;;;;;;;;;5049550;28;20064;-71
2022/10/18 07:27:06;;;;;;;10.02;4.95;;;;;;;;;;5033660;28;20080;-70
2022/10/18 07:29:39;;;;;;;8.02;5.07;;;;;;;;;;5032973;28;20068;-70
2022/10/18 07:32:10;;;;;;;8.52;4.80;;;;;;;;;;5038798;28;20053;-70
2022/10/18 07:34:39;;;;;;;11.02;4.72;;;;;;;;;;5112366;28;20495;-71
2022/10/18 07:37:09;;;;;;;10.50;5.68;;;;;;;;;;5112352;28;20039;-71
2022/10/18 07:39:39;;;;;;;9.85;4.97;;;;;;;;;;5112657;28;20047;-70
2022/10/18 07:42:09;;;;;;;8.85;4.68;;;;;;;;;;5112333;28;20043;-71
2022/10/18 07:44:39;;;;;;;7.53;4.28;;;;;;;;;;5112742;28;20048;-72
2022/10/18 07:47:09;;;;;;;9.52;4.93;;;;;;;;;;5112402;28;20507;-71
2022/10/18 07:49:39;;;;;;;9.55;5.28;;;;;;;;;;5049304;28;20072;-72
2022/10/18 07:52:09;;;;;;;8.63;5.10;;;;;;;;;;5049455;28;20057;-71
2022/10/18 07:54:39;;;;;;;9.98;5.03;;;;;;;;;;5016420;28;20497;-69
2022/10/18 07:57:09;;;;;;;8.60;4.57;;;;;;;;;;5049573;28;20052;-71
2022/10/18 07:59:39;;;;;;;9.07;4.45;;;;;;;;;;5049256;28;20472;-70
2022/10/18 08:02:09;;;;;;;7.13;4.35;;;;;;;;;;5009802;28;20057;-70
2022/10/18 08:04:40;;;;;;;8.63;5.25;;;;;;;;;;4976842;28;20050;-69
2022/10/18 08:07:10;;;;;;;7.30;4.50;;;;;;;;;;5009743;28;20062;-69
2022/10/18 08:09:40;;;;;;;9.80;4.47;;;;;;;;;;4976707;28;20058;-69
2022/10/18 08:12:10;;;;;;;9.23;4.60;;;;;;;;;;5009728;28;20054;-69
2022/10/18 08:14:41;;;;;;;9.45;4.85;;;;;;;;;;5009549;28;20050;-69
2022/10/18 08:17:11;;;;;;;8.48;4.28;;;;;;;;;;5009647;28;20057;-69
2022/10/18 08:19:41;;;;;;;9.20;3.65;;;;;;;;;;5009345;28;20421;-69
2022/10/18 08:22:31;;;;;;;11.57;3.53;;;;;;;;;;5009647;28;20379;-69
2022/10/18 08:25:01;;;;;;;8.43;4.00;;;;;;;;;;5009603;28;20042;-69
2022/10/18 08:27:31;;;;;;;9.30;4.20;;;;;;;;;;5013249;28;20060;-69
2022/10/18 08:30:02;;;;;;;7.63;4.65;;;;;;;;;;5013119;28;20053;-69
2022/10/18 08:32:32;;;;;;;7.32;3.53;;;;;;;;;;5012744;28;20429;-68
2022/10/18 08:35:02;;;;;;;9.93;4.60;;;;;;;;;;5012980;28;20068;-68
2022/10/18 08:37:37;;;;;;;8.50;4.20;;;;;;;;;;4980756;28;20060;-68
2022/10/18 08:40:09;;;;;;;7.63;4.22;;;;;;;;;;5055532;28;20538;-68
2022/10/18 08:42:57;;;;;;;10.05;3.38;;;;;;;;;;5019167;28;20390;-68
2022/10/18 08:45:28;;;;;;;7.03;3.40;;;;;;;;;;5071826;28;20412;-68
2022/10/18 08:48:23;;;;;;;7.53;4.00;;;;;;;;;;5052166;28;20049;-68
2022/10/18 08:50:56;;;;;;;7.15;4.15;;;;;;;;;;4993055;28;20056;-68
2022/10/18 08:53:29;;;;;;;7.55;4.25;;;;;;;;;;4993231;28;20058;-68
2022/10/18 08:56:20;;;;;;;9.57;3.95;;;;;;;;;;4944892;28;20061;-68
2022/10/18 08:58:50;;;;;;;6.93;3.97;;;;;;;;;;4976872;28;20050;-68
2022/10/18 09:01:35;;;;;;;7.82;3.80;;;;;;;;;;4960565;28;20069;-68
2022/10/18 09:04:22;;;;;;;5.50;2.72;;;;;;;;;;4994276;28;20418;-68
2022/10/18 09:07:04;;;;;;;8.30;2.83;;;;;;;;;;5012578;28;20401;-69
2022/10/18 09:09:59;;;;;;;8.48;3.47;;;;;;;;;;5012624;28;20049;-69
2022/10/18 09:12:32;;;;;;;6.88;3.78;;;;;;;;;;5012590;28;20054;-69
2022/10/18 09:15:05;;;;;;;6.07;3.25;;;;;;;;;;5012390;28;20057;-67
2022/10/18 09:18:04;;;;;;;7.75;3.42;;;;;;;;;;5012252;28;20062;-68
2022/10/18 09:20:56;;;;;;;6.85;3.38;;;;;;;;;;4953925;29;20055;-68
2022/10/18 09:23:48;;;;;;;7.28;3.40;;;;;;;;;;4992570;28;20411;-67
2022/10/18 09:26:23;;;;;;;8.90;3.35;;;;;;;;;;4990375;28;20057;-67
2022/10/18 09:29:12;;;;;;;7.65;4.10;;;;;;;;;;5012029;28;20054;-68
2022/10/18 09:31:54;;;;;;;7.28;5.07;;;;;;;;;;5011777;28;20062;-67
2022/10/18 09:34:29;;;;;;;6.28;3.42;;;;;;;;;;5025668;28;20092;-67
2022/10/18 09:37:00;;;;;;;7.47;3.78;;;;;;;;;;5031751;28;20056;-68
2022/10/18 09:39:35;;;;;;;7.55;3.30;;;;;;;;;;5031690;28;20050;-67
2022/10/18 09:42:25;;;;;;;5.78;3.28;;;;;;;;;;4998825;28;20065;-68
2022/10/18 09:45:01;;;;;;;6.57;3.22;;;;;;;;;;5031496;28;20064;-67
2022/10/18 09:47:45;;;;;;;7.50;4.43;;;;;;;;;;4982753;28;20054;-68
2022/10/18 09:50:35;;;;;;;7.35;3.55;;;;;;;;;;5031476;28;20120;-68
2022/10/18 09:53:21;;;;;;;5.45;3.05;;;;;;;;;;5031570;28;20057;-68
2022/10/18 09:56:25;;;;;;;10.35;3.75;;;;;;;;;;4982403;28;20049;-68
2022/10/18 09:58:55;;;;;;;8.32;3.35;;;;;;;;;;5031062;28;20113;-68
2022/10/18 10:01:29;;;;;;;8.40;3.00;;;;;;;;;;4982048;28;20437;-67
2022/10/18 10:03:59;;;;;;;8.52;3.90;;;;;;;;;;5014474;28;20497;-67
2022/10/18 10:06:31;;;;;;;8.98;4.80;;;;;;;;;;5031231;28;20056;-68
2022/10/18 10:09:26;;;;;;;6.65;4.05;;;;;;;;;;4998146;28;20052;-67
2022/10/18 10:11:57;;;;;;;7.35;3.83;;;;;;;;;;4978455;28;20054;-68
2022/10/18 10:14:29;;;;;;;6.32;3.40;;;;;;;;;;5011295;28;20442;-68
2022/10/18 10:17:03;;;;;;;6.63;3.50;;;;;;;;;;5011126;28;20054;-67
2022/10/18 10:19:56;;;;;;;6.57;3.90;;;;;;;;;;5011098;28;20050;-67
2022/10/18 10:22:38;;;;;;;5.30;3.17;;;;;;;;;;4994427;28;20490;-67
2022/10/18 10:25:30;;;;;;;6.93;3.25;;;;;;;;;;4997820;28;20092;-68
2022/10/18 10:28:06;;;;;;;5.57;3.15;;;;;;;;;;5010841;28;20057;-68
2022/10/18 10:30:38;;;;;;;6.63;3.47;;;;;;;;;;4978621;28;20062;-73
2022/10/18 10:33:35;;;;;;;5.68;2.88;;;;;;;;;;4978312;28;20410;-70
2022/10/18 10:36:20;;;;;;;9.50;3.85;;;;;;;;;;4949551;28;20595;-69
2022/10/18 10:39:10;;;;;;;6.97;3.95;;;;;;;;;;4971519;28;20051;-69
2022/10/18 10:41:41;;;;;;;7.38;3.47;;;;;;;;;;4920402;29;20051;-71
2022/10/18 10:44:20;;;;;;;5.78;3.03;;;;;;;;;;4920606;29;20419;-71
2022/10/18 10:46:51;;;;;;;9.73;3.70;;;;;;;;;;4952283;29;20055;-69
2022/10/18 10:49:28;;;;;;;6.55;3.13;;;;;;;;;;4963875;28;20051;-69
2022/10/18 10:52:26;;;;;;;8.55;3.45;;;;;;;;;;4971522;28;20174;-69
2022/10/18 10:55:00;;;;;;;13.73;5.60;;;;;;;;;;4971698;28;20059;-68
2022/10/18 10:57:52;;;;;;;8.57;5.07;;;;;;;;;;4971424;28;20499;-70
2022/10/18 11:00:40;;;;;;;8.57;4.50;;;;;;;;;;4971218;28;20059;-70
2022/10/18 11:03:19;;;;;;;7.93;4.55;;;;;;;;;;4958423;28;20050;-69
2022/10/18 11:05:59;;;;;;;6.65;3.90;;;;;;;;;;4995969;28;20054;-68
2022/10/18 11:08:39;;;;;;;6.28;3.60;;;;;;;;;;4977327;28;20046;-72
2022/10/18 11:11:30;;;;;;;7.78;3.88;;;;;;;;;;5010187;28;20078;-79
2022/10/18 11:14:17;;;;;;;7.35;4.50;;;;;;;;;;4962615;28;20068;-77
2022/10/18 11:17:16;;;;;;;8.07;3.95;;;;;;;;;;4964355;28;20069;-77
2022/10/18 11:20:09;;;;;;;9.57;5.43;;;;;;;;;;5031429;28;20064;-73
2022/10/18 11:23:01;;;;;;;7.15;3.85;;;;;;;;;;5049668;28;20057;-68
2022/10/18 11:25:56;;;;;;;7.40;3.58;;;;;;;;;;5049786;28;20053;-69
2022/10/18 11:28:35;;;;;;;6.28;2.88;;;;;;;;;;5049582;28;20513;-70
2022/10/18 11:31:23;;;;;;;6.90;3.22;;;;;;;;;;5000279;28;20053;-75
2022/10/18 11:34:33;;;;;;;5.65;2.92;;;;;;;;;;5019938;28;20061;-71
2022/10/18 11:37:29;;;;;;;8.35;2.85;;;;;;;;;;5071869;28;20041;-75
2022/10/18 11:40:28;;;;;;;5.45;3.10;;;;;;;;;;4990218;28;20058;-72
2022/10/18 11:43:19;;;;;;;7.03;3.30;;;;;;;;;;4990235;28;20046;-76
2022/10/18 11:46:10;;;;;;;6.65;2.65;;;;;;;;;;4942442;28;20526;-74
2022/10/18 11:48:48;;;;;;;6.03;2.92;;;;;;;;;;4974029;28;20081;-74
2022/10/18 11:51:37;;;;;;;7.18;3.15;;;;;;;;;;4990076;28;20066;-70
2022/10/18 11:54:57;;;;;;;12.60;6.65;;;;;;;;;;4990312;28;20047;-69
2022/10/18 11:57:45;;;;;;;6.82;3.92;;;;;;;;;;4990074;28;20046;-68
2022/10/18 12:00:32;;;;;;;5.90;3.05;;;;;;;;;;4990057;28;20046;-72
2022/10/18 12:03:23;;;;;;;10.15;5.45;;;;;;;;;;4941503;28;20054;-77
2022/10/18 12:05:57;;;;;;;7.10;4.32;;;;;;;;;;4990349;28;20502;-76
2022/10/18 12:08:30;;;;;;;5.35;3.00;;;;;;;;;;4973771;28;20609;-75
2022/10/18 12:11:09;;;;;;;5.20;2.85;;;;;;;;;;4990103;28;20054;-72
2022/10/18 12:14:06;;;;;;;5.68;3.10;;;;;;;;;;4973801;28;20054;-70
2022/10/18 12:16:39;;;;;;;5.68;2.50;;;;;;;;;;5021027;28;20056;-70
2022/10/18 12:19:32;;;;;;;5.18;2.75;;;;;;;;;;5030229;28;20061;-70
2022/10/18 12:22:22;;;;;;;4.88;2.22;;;;;;;;;;5016881;28;20533;-68
2022/10/18 12:24:53;;;;;;;5.60;2.78;;;;;;;;;;5033102;28;20053;-69
2022/10/18 12:27:45;;;;;;;6.22;3.35;;;;;;;;;;5033162;28;20049;-68
2022/10/18 12:30:32;;;;;;;4.82;2.70;;;;;;;;;;5016492;28;20069;-68
2022/10/18 12:33:11;;;;;;;6.47;3.25;;;;;;;;;;5035278;28;20045;-68
2022/10/18 12:36:24;;;;;;;5.75;2.45;;;;;;;;;;5052924;28;20072;-69
2022/10/18 12:38:59;;;;;;;6.05;3.70;;;;;;;;;;4993436;28;20082;-70
2022/10/18 12:41:34;;;;;;;7.07;3.67;;;;;;;;;;4993422;28;20557;-70
2022/10/18 12:44:19;;;;;;;5.28;2.60;;;;;;;;;;4993207;28;20062;-72
2022/10/18 12:46:55;;;;;;;6.97;3.15;;;;;;;;;;4961197;28;20506;-71
2022/10/18 12:49:37;;;;;;;5.95;3.42;;;;;;;;;;4993781;28;20062;-70
2022/10/18 12:52:23;;;;;;;6.40;3.28;;;;;;;;;;5052286;28;20057;-71
2022/10/18 12:55:25;;;;;;;7.15;2.88;;;;;;;;;;5052618;28;20086;-75
2022/10/18 12:57:59;;;;;;;8.65;4.07;;;;;;;;;;5052504;28;20513;-76
2022/10/18 13:00:31;;;;;;;14.18;7.85;;;;;;;;;;5052253;28;20049;-77
2022/10/18 13:03:19;;;;;;;6.13;2.78;;;;;;;;;;5012222;28;20046;-77
2022/10/18 13:05:52;;;;;;;4.75;2.60;;;;;;;;;;5012579;28;20042;-76
2022/10/18 13:08:30;;;;;;;5.65;3.33;;;;;;;;;;4996283;28;20065;-78
2022/10/18 13:11:09;;;;;;;6.35;2.85;;;;;;;;;;4995881;28;20049;-77
2022/10/18 13:13:49;;;;;;;6.03;3.40;;;;;;;;;;4963852;28;20050;-74
2022/10/18 13:16:22;;;;;;;4.97;2.88;;;;;;;;;;5034912;28;20048;-75
2022/10/18 13:19:14;;;;;;;5.70;2.65;;;;;;;;;;5051930;28;20057;-72
2022/10/18 13:21:56;;;;;;;5.50;2.60;;;;;;;;;;5052036;28;20038;-73
2022/10/18 13:24:32;;;;;;;5.50;2.70;;;;;;;;;;5051699;28;20052;-73
2022/10/18 13:27:37;;;;;;;7.80;3.53;;;;;;;;;;5052219;28;20052;-75
2022/10/18 13:30:26;;;;;;;4.72;2.30;;;;;;;;;;5004108;28;20062;-74
2022/10/18 13:33:14;;;;;;;2.78;1.55;;;;;;;;;;5012027;28;20686;-72
2022/10/18 13:36:02;;;;;;;4.45;2.40;;;;;;;;;;5011774;28;20061;-71
2022/10/18 13:39:07;;;;;;;8.95;3.83;;;;;;;;;;5012039;28;20378;-71
2022/10/18 13:41:47;;;;;;;5.88;2.83;;;;;;;;;;4921871;29;20050;-72
2022/10/18 13:44:40;;;;;;;8.73;5.00;;;;;;;;;;4953612;29;20051;-70
2022/10/18 13:47:13;;;;;;;5.30;2.83;;;;;;;;;;4953589;29;20063;-71
2022/10/18 13:49:59;;;;;;;4.82;2.55;;;;;;;;;;4953336;29;20055;-71
2022/10/18 13:53:15;;;;;;;4.65;2.38;;;;;;;;;;4921422;29;20630;-70
2022/10/18 13:55:53;;;;;;;5.07;2.20;;;;;;;;;;4899311;29;20052;-72
2022/10/18 13:58:30;;;;;;;11.43;5.97;;;;;;;;;;4877393;29;20060;-71
2022/10/18 14:01:29;;;;;;;11.75;4.97;;;;;;;;;;4862394;29;20548;-69
2022/10/18 14:04:22;;;;;;;98.57;38.53;;;;;;;;;;4840603;29;20068;-70
2022/10/18 14:07:07;;;;;;;28.17;15.52;;;;;;;;;;5149790;27;20713;-70
2022/10/18 14:09:49;;;;;;;4.60;2.30;;;;;;;;;;5130332;27;20043;-70
2022/10/18 14:12:44;;;;;;;3.20;1.75;;;;;;;;;;5064929;27;20055;-70
2022/10/18 14:15:24;;;;;;;5.55;3.03;;;;;;;;;;5130273;27;20047;-70
2022/10/18 14:18:07;;;;;;;4.63;2.30;;;;;;;;;;5094139;28;20051;-70
2022/10/18 14:20:42;;;;;;;5.15;1.42;;;;;;;;;;5130302;27;20050;-71
2022/10/18 14:23:42;;;;;;;4.00;1.23;;;;;;;;;;5114659;28;20047;-69
2022/10/18 14:26:18;;;;;;;4.05;1.63;;;;;;;;;;5129868;27;20043;-70
2022/10/18 14:29:18;;;;;;;2.40;1.20;;;;;;;;;;5130204;27;20047;-71
2022/10/18 14:31:53;;;;;;;2.85;1.27;;;;;;;;;;5130147;27;20040;-71
2022/10/18 14:34:23;;;;;;;4.60;1.83;;;;;;;;;;5045013;28;20074;-70
2022/10/18 14:36:53;;;;;;;2.50;1.30;;;;;;;;;;5129776;27;20051;-70
2022/10/18 14:39:31;;;;;;;3.85;1.52;;;;;;;;;;5130031;27;20059;-70
2022/10/18 14:42:02;;;;;;;3.05;1.25;;;;;;;;;;5129870;27;20062;-75
2022/10/18 14:44:33;;;;;;;3.70;1.33;;;;;;;;;;5129650;27;20043;-69
2022/10/18 14:47:17;;;;;;;1.90;1.00;;;;;;;;;;5129776;27;20040;-72
2022/10/18 14:49:48;;;;;;;3.42;1.20;;;;;;;;;;5129538;27;20035;-73
2022/10/18 14:52:25;;;;;;;2.38;1.00;;;;;;;;;;5129547;27;20048;-70
2022/10/18 14:55:01;;;;;;;2.13;1.27;;;;;;;;;;5129220;27;20070;-77
2022/10/18 14:57:35;;;;;;;1.80;0.93;;;;;;;;;;5093584;27;20059;-71
2022/10/18 15:00:08;;;;;;;2.50;1.13;;;;;;;;;;5129324;27;20043;-73
2022/10/18 15:02:39;;;;;;;2.65;1.00;;;;;;;;;;5129336;27;20039;-71
2022/10/18 15:05:18;;;;;;;4.63;1.15;;;;;;;;;;5105815;28;20078;-70
2022/10/18 15:07:50;;;;;;;1.70;0.95;;;;;;;;;;5056848;28;20585;-68
2022/10/18 15:10:35;;;;;;;2.97;1.15;;;;;;;;;;5106380;28;20186;-70
2022/10/18 15:13:06;;;;;;;3.40;0.82;;;;;;;;;;5073454;28;20067;-69
2022/10/18 15:15:40;;;;;;;2.58;1.02;;;;;;;;;;5028580;28;20053;-69
2022/10/18 15:18:22;;;;;;;1.92;1.00;;;;;;;;;;5001165;28;20069;-68
2022/10/18 15:21:24;;;;;;;1.67;0.82;;;;;;;;;;4999443;28;20050;-68
2022/10/18 15:24:14;;;;;;;4.72;1.30;;;;;;;;;;5032358;28;20524;-69
2022/10/18 15:26:46;;;;;;;1.50;0.90;;;;;;;;;;5032178;28;20054;-69
2022/10/18 15:29:22;;;;;;;2.92;1.30;;;;;;;;;;5012368;28;20498;-69
2022/10/18 15:31:53;;;;;;;3.10;0.93;;;;;;;;;;5012346;28;20061;-69
2022/10/18 15:34:26;;;;;;;2.78;1.23;;;;;;;;;;4996363;28;20137;-69
2022/10/18 15:36:56;;;;;;;2.10;0.98;;;;;;;;;;4979745;28;20433;-70